Terminal Aerodrome Forecast
Issued by NWS

Home | Current Version | Previous Version | Text Only | Print | Product List | Glossary On
Versions: 1 2 3 4 5 6 7 8 9 10 11 12 13 14
000
FTUS46 KPDT 270500
TAFRDM
TAF
KRDM 270520Z 2706/2806 VRB04KT P6SM SKC
     FM272100 28008KT P6SM SCT080 BKN120
     FM280000 30012KT P6SM VCSH SCT060 BKN080=

USA.gov is the U.S. government's official web portal to all federal, state and local government web resources and services.